createdAt,value
2023-05-03T00:00:40.041Z,76.10
2023-05-03T00:03:07.235Z,76.00
2023-05-03T00:05:34.497Z,75.90
2023-05-03T00:08:02.411Z,75.90
2023-05-03T00:10:30.347Z,75.70
2023-05-03T00:12:57.958Z,75.80
2023-05-03T00:15:25.129Z,75.90
2023-05-03T00:17:53.397Z,75.80
2023-05-03T00:20:21.625Z,75.90
2023-05-03T00:22:48.867Z,75.80
2023-05-03T00:25:17.666Z,75.80
2023-05-03T00:27:44.811Z,75.80
2023-05-03T00:30:12.311Z,75.70
2023-05-03T00:32:39.816Z,75.70
2023-05-03T00:35:07.814Z,75.80
2023-05-03T00:37:35.260Z,75.70
2023-05-03T00:40:02.863Z,75.90
2023-05-03T00:42:31.446Z,76.00
2023-05-03T00:45:01.369Z,76.00
2023-05-03T00:47:32.157Z,76.00
2023-05-03T00:50:01.011Z,75.80
2023-05-03T00:52:29.237Z,75.90
2023-05-03T00:54:58.209Z,75.90
2023-05-03T00:57:26.632Z,75.90
2023-05-03T00:59:54.048Z,75.90
2023-05-03T01:02:22.457Z,75.80
2023-05-03T01:04:49.587Z,75.90
2023-05-03T01:07:35.628Z,75.90
2023-05-03T01:10:08.801Z,76.00
2023-05-03T01:12:41.978Z,76.00
2023-05-03T01:15:13.686Z,76.10
2023-05-03T01:17:42.695Z,76.10
2023-05-03T01:20:12.244Z,76.00
2023-05-03T01:22:44.505Z,76.10
2023-05-03T01:25:12.954Z,76.30
2023-05-03T01:27:43.273Z,76.30
2023-05-03T01:30:12.823Z,76.30
2023-05-03T01:32:39.906Z,76.30
2023-05-03T01:35:14.678Z,76.20
2023-05-03T01:37:42.890Z,76.30
2023-05-03T01:40:11.766Z,76.20
2023-05-03T01:42:39.296Z,76.30
2023-05-03T01:45:06.634Z,76.30
2023-05-03T01:47:34.508Z,76.40
2023-05-03T01:50:02.500Z,76.30
2023-05-03T01:52:31.157Z,76.20
2023-05-03T01:55:01.934Z,76.10
2023-05-03T01:57:30.000Z,76.10
2023-05-03T01:59:57.184Z,76.30
2023-05-03T02:02:24.640Z,76.40
2023-05-03T02:04:51.957Z,76.50
2023-05-03T02:07:19.240Z,76.50
2023-05-03T02:09:46.313Z,76.50
2023-05-03T02:12:13.792Z,76.50
2023-05-03T02:14:41.601Z,76.60
2023-05-03T02:17:08.795Z,76.60
2023-05-03T02:19:36.034Z,76.80
2023-05-03T02:22:03.564Z,76.90
2023-05-03T02:24:36.518Z,76.80
2023-05-03T02:27:07.297Z,76.70
2023-05-03T02:29:34.627Z,76.60
2023-05-03T02:32:01.876Z,76.50
2023-05-03T02:34:29.634Z,76.60
2023-05-03T02:36:56.656Z,76.70
2023-05-03T02:39:23.879Z,76.70
2023-05-03T02:41:51.234Z,76.70
2023-05-03T02:44:21.541Z,76.60
2023-05-03T02:46:48.900Z,76.40
2023-05-03T02:49:16.506Z,76.40
2023-05-03T02:51:43.621Z,76.50
2023-05-03T02:54:10.877Z,76.60
2023-05-03T02:56:38.717Z,76.70
2023-05-03T02:59:05.951Z,76.80
2023-05-03T03:01:35.523Z,76.90
2023-05-03T03:04:02.970Z,76.80
2023-05-03T03:06:30.239Z,76.80
2023-05-03T03:08:57.408Z,76.80
2023-05-03T03:11:25.602Z,76.80
2023-05-03T03:13:52.545Z,77.00
2023-05-03T03:16:19.883Z,77.00
2023-05-03T03:18:46.787Z,76.90
2023-05-03T03:21:14.055Z,77.00
2023-05-03T03:23:41.324Z,77.10
2023-05-03T03:26:08.921Z,77.20
2023-05-03T03:28:36.255Z,77.30
2023-05-03T03:31:03.388Z,77.30
2023-05-03T03:33:31.174Z,77.40
2023-05-03T03:35:58.177Z,77.50
2023-05-03T03:38:25.266Z,77.60
2023-05-03T03:40:53.066Z,77.70
2023-05-03T03:43:20.224Z,77.80
2023-05-03T03:45:47.305Z,77.80
2023-05-03T03:48:14.377Z,77.80
2023-05-03T03:50:41.779Z,77.80
2023-05-03T03:53:11.355Z,77.80
2023-05-03T03:55:39.089Z,77.80
2023-05-03T03:58:06.382Z,78.00
2023-05-03T04:00:34.895Z,78.00
2023-05-03T04:03:02.813Z,78.00
2023-05-03T04:05:34.118Z,78.10
2023-05-03T04:08:01.243Z,78.10
2023-05-03T04:10:28.293Z,78.00
2023-05-03T04:12:56.111Z,77.90
2023-05-03T04:15:23.336Z,78.00
2023-05-03T04:17:50.813Z,78.10
2023-05-03T04:20:18.834Z,78.10
2023-05-03T04:22:46.144Z,78.20
2023-05-03T04:25:17.703Z,78.20
2023-05-03T04:27:45.685Z,78.20
2023-05-03T04:30:14.331Z,78.30
2023-05-03T04:32:42.988Z,78.40
2023-05-03T04:35:11.127Z,78.30
2023-05-03T04:37:38.769Z,78.40
2023-05-03T04:40:08.988Z,78.40
2023-05-03T04:42:36.758Z,78.40
2023-05-03T04:45:04.873Z,78.50
2023-05-03T04:47:32.371Z,78.50
2023-05-03T04:50:00.023Z,78.50
2023-05-03T04:52:27.265Z,78.40
2023-05-03T04:54:55.174Z,78.30
2023-05-03T04:57:22.245Z,78.30
2023-05-03T04:59:49.483Z,78.30
2023-05-03T05:02:16.958Z,78.40
2023-05-03T05:04:44.146Z,78.40
2023-05-03T05:07:12.426Z,78.40
2023-05-03T05:09:40.291Z,78.60
2023-05-03T05:12:07.555Z,78.60
2023-05-03T05:14:34.632Z,78.60
2023-05-03T05:17:02.112Z,78.70
2023-05-03T05:19:29.393Z,78.70
2023-05-03T05:21:57.115Z,78.70
2023-05-03T05:24:24.251Z,78.70
2023-05-03T05:26:51.803Z,78.70
2023-05-03T05:29:18.795Z,78.50
2023-05-03T05:31:45.904Z,78.50
2023-05-03T05:34:13.573Z,78.50
2023-05-03T05:36:40.867Z,78.50
2023-05-03T05:39:08.252Z,78.40
2023-05-03T05:41:35.385Z,78.40
2023-05-03T05:44:02.846Z,78.40
2023-05-03T05:46:31.034Z,78.10
2023-05-03T05:48:58.304Z,78.00
2023-05-03T05:51:25.367Z,78.10
2023-05-03T05:53:52.601Z,78.10
2023-05-03T05:56:19.624Z,78.10
2023-05-03T05:58:49.985Z,78.00
2023-05-03T06:01:17.328Z,77.80
2023-05-03T06:03:44.607Z,77.70
2023-05-03T06:06:11.691Z,77.70
2023-05-03T06:08:38.790Z,77.60
2023-05-03T06:11:05.980Z,77.60
2023-05-03T06:13:35.087Z,77.50
2023-05-03T06:16:03.924Z,77.40
2023-05-03T06:18:31.648Z,77.30
2023-05-03T06:20:58.553Z,77.30
2023-05-03T06:23:30.711Z,77.30
2023-05-03T06:25:57.873Z,77.10
2023-05-03T06:28:24.953Z,76.90
2023-05-03T06:30:53.203Z,76.70
2023-05-03T06:33:20.438Z,76.70
2023-05-03T06:35:47.742Z,76.60
2023-05-03T06:38:15.297Z,76.70
2023-05-03T06:40:42.828Z,76.60
2023-05-03T06:43:09.873Z,76.30
2023-05-03T06:45:37.408Z,76.30
2023-05-03T06:48:04.976Z,76.30
2023-05-03T06:50:32.607Z,76.00
2023-05-03T06:52:59.825Z,75.90
2023-05-03T06:55:28.233Z,75.90
2023-05-03T06:57:55.729Z,75.80
2023-05-03T07:00:23.490Z,75.70
2023-05-03T07:02:51.058Z,75.70
2023-05-03T07:05:18.307Z,75.40
2023-05-03T07:07:45.775Z,75.30
2023-05-03T07:10:12.976Z,75.20
2023-05-03T07:12:39.992Z,75.00
2023-05-03T07:15:07.463Z,74.90
2023-05-03T07:17:34.794Z,74.90
2023-05-03T07:20:05.550Z,74.80
2023-05-03T07:22:33.258Z,74.90
2023-05-03T07:25:02.222Z,74.80
2023-05-03T07:27:29.715Z,74.70
2023-05-03T07:29:56.858Z,74.70
2023-05-03T07:32:23.933Z,74.60
2023-05-03T07:34:51.330Z,74.50
2023-05-03T07:37:18.452Z,74.40
2023-05-03T07:39:45.923Z,74.30
2023-05-03T07:42:12.970Z,74.30
2023-05-03T07:44:40.406Z,74.20
2023-05-03T07:47:07.622Z,74.20
2023-05-03T07:49:36.927Z,74.10
2023-05-03T07:52:04.051Z,74.00
2023-05-03T07:54:32.399Z,74.00
2023-05-03T07:57:00.466Z,74.10
2023-05-03T07:59:27.623Z,74.20
2023-05-03T08:01:54.822Z,74.10
2023-05-03T08:04:22.525Z,74.00
2023-05-03T08:06:50.072Z,73.90
2023-05-03T08:09:18.273Z,73.80
2023-05-03T08:11:46.019Z,73.70
2023-05-03T08:14:13.550Z,73.60
2023-05-03T08:16:41.046Z,73.50
2023-05-03T08:19:08.487Z,73.40
2023-05-03T08:21:36.079Z,73.40
2023-05-03T08:24:06.600Z,73.30
2023-05-03T08:26:33.786Z,73.20
2023-05-03T08:29:02.287Z,73.00
2023-05-03T08:31:30.872Z,72.90
2023-05-03T08:33:58.052Z,72.90
2023-05-03T08:36:25.283Z,72.90
2023-05-03T08:38:52.778Z,72.70
2023-05-03T08:41:26.438Z,72.70
2023-05-03T08:43:54.525Z,72.60
2023-05-03T08:46:22.168Z,72.60
2023-05-03T08:48:50.393Z,72.50
2023-05-03T08:51:18.637Z,72.30
2023-05-03T08:53:46.526Z,72.00
2023-05-03T08:56:17.504Z,71.80
2023-05-03T08:58:44.598Z,71.70
2023-05-03T09:01:11.749Z,71.70
2023-05-03T09:03:39.259Z,71.40
2023-05-03T09:06:20.172Z,71.30
2023-05-03T09:08:47.652Z,71.20
2023-05-03T09:11:22.498Z,71.20
2023-05-03T09:13:50.821Z,71.30
2023-05-03T09:16:27.529Z,71.20
2023-05-03T09:19:04.857Z,71.20
2023-05-03T09:21:33.267Z,71.20
2023-05-03T09:24:00.875Z,71.20
2023-05-03T09:26:32.227Z,71.20
2023-05-03T09:29:00.296Z,71.10
2023-05-03T09:31:30.924Z,70.90
2023-05-03T09:33:59.040Z,70.80
2023-05-03T09:36:32.836Z,70.80
2023-05-03T09:39:16.501Z,70.80
2023-05-03T09:41:43.719Z,70.70
2023-05-03T09:44:11.496Z,70.70
2023-05-03T09:46:39.086Z,70.80
2023-05-03T09:49:06.521Z,70.80
2023-05-03T09:51:34.063Z,70.90
2023-05-03T09:54:02.047Z,70.90
2023-05-03T09:56:29.302Z,70.70
2023-05-03T09:58:59.616Z,70.60
2023-05-03T10:01:26.968Z,70.40
2023-05-03T10:03:57.721Z,70.30
2023-05-03T10:06:43.359Z,70.30
2023-05-03T10:09:25.612Z,70.20
2023-05-03T10:11:59.552Z,70.00
2023-05-03T10:14:27.427Z,70.00
2023-05-03T10:17:00.504Z,69.90
2023-05-03T10:19:34.830Z,69.80
2023-05-03T10:22:07.984Z,69.70
2023-05-03T10:24:55.487Z,69.60
2023-05-03T10:27:22.976Z,69.50
2023-05-03T10:29:51.662Z,69.30
2023-05-03T10:32:29.368Z,69.40
2023-05-03T10:35:17.408Z,69.30
2023-05-03T10:37:45.928Z,69.20
2023-05-03T10:40:14.045Z,68.90
2023-05-03T10:42:46.841Z,68.70
2023-05-03T10:45:27.409Z,68.40
2023-05-03T10:48:14.636Z,68.40
2023-05-03T10:50:42.331Z,68.70
2023-05-03T10:53:30.743Z,68.40
2023-05-03T10:56:11.999Z,68.10
2023-05-03T10:58:43.170Z,67.70
2023-05-03T11:01:11.468Z,67.60
2023-05-03T11:03:51.229Z,67.30
2023-05-03T11:06:35.434Z,67.00
2023-05-03T11:09:07.339Z,66.50
2023-05-03T11:11:39.696Z,66.20
2023-05-03T11:14:08.853Z,66.00
2023-05-03T11:16:37.311Z,65.60
2023-05-03T11:19:05.072Z,65.00
2023-05-03T11:21:33.148Z,64.60
2023-05-03T11:24:01.902Z,64.80
2023-05-03T11:26:29.588Z,65.10
2023-05-03T11:28:58.341Z,65.20
2023-05-03T11:31:25.529Z,65.60
2023-05-03T11:33:53.202Z,65.70
2023-05-03T11:36:20.962Z,65.40
2023-05-03T11:38:47.928Z,65.10
2023-05-03T11:41:16.677Z,64.70
2023-05-03T11:43:47.688Z,64.50
2023-05-03T11:46:22.004Z,64.30
2023-05-03T11:48:49.581Z,64.20
2023-05-03T11:51:22.174Z,64.30
2023-05-03T11:53:49.422Z,64.20
2023-05-03T11:56:19.653Z,64.10
2023-05-03T11:58:53.537Z,64.10
2023-05-03T12:01:22.764Z,64.00
2023-05-03T12:03:54.062Z,64.00
2023-05-03T12:06:22.062Z,64.10
2023-05-03T12:08:50.309Z,64.20
2023-05-03T12:11:18.930Z,64.30
2023-05-03T12:13:57.628Z,64.40
2023-05-03T12:16:25.055Z,64.80
2023-05-03T12:19:03.598Z,65.10
2023-05-03T12:21:59.133Z,64.50
2023-05-03T12:24:33.238Z,64.50
2023-05-03T12:27:02.958Z,63.80
2023-05-03T12:29:35.351Z,62.60
2023-05-03T12:32:04.328Z,61.90
2023-05-03T12:34:35.654Z,60.80
2023-05-03T12:37:05.793Z,59.50
2023-05-03T12:39:39.556Z,57.90
2023-05-03T12:42:09.572Z,57.40
2023-05-03T12:44:41.798Z,57.70
2023-05-03T12:47:10.541Z,58.00
2023-05-03T12:49:39.413Z,58.30
2023-05-03T12:54:41.533Z,58.70
2023-05-03T12:57:15.603Z,59.00
2023-05-03T12:59:45.459Z,59.20
2023-05-03T13:03:19.844Z,58.90
2023-05-03T13:05:12.023Z,59.20
2023-05-03T13:07:43.754Z,59.60
2023-05-03T13:12:41.504Z,59.00
2023-05-03T13:15:09.137Z,59.00
2023-05-03T13:17:36.793Z,59.10
2023-05-03T13:20:07.429Z,58.90
2023-05-03T13:22:35.376Z,58.50
2023-05-03T13:25:03.758Z,57.80
2023-05-03T13:27:31.446Z,57.70
2023-05-03T13:29:58.703Z,57.10
2023-05-03T13:32:26.233Z,56.70
2023-05-03T13:34:53.856Z,56.40
2023-05-03T13:37:21.036Z,56.20
2023-05-03T13:39:48.252Z,56.10
2023-05-03T13:42:15.682Z,56.10
2023-05-03T13:44:44.616Z,56.00
2023-05-03T13:47:11.863Z,56.00
2023-05-03T13:49:38.984Z,56.00
2023-05-03T13:52:06.448Z,55.90
2023-05-03T13:54:35.601Z,56.20
2023-05-03T13:57:02.711Z,56.30
2023-05-03T13:59:30.028Z,56.40
2023-05-03T14:01:57.224Z,56.60
2023-05-03T14:04:26.012Z,56.90
2023-05-03T14:06:54.888Z,57.10
2023-05-03T14:09:26.186Z,57.20
2023-05-03T14:11:55.111Z,57.30
2023-05-03T14:14:26.939Z,57.60
2023-05-03T14:16:54.509Z,57.90
2023-05-03T14:19:22.240Z,58.30
2023-05-03T14:21:51.802Z,58.60
2023-05-03T14:24:19.068Z,58.80
2023-05-03T14:26:47.583Z,59.10
2023-05-03T14:29:14.637Z,59.40
2023-05-03T14:31:42.202Z,59.70
2023-05-03T14:34:09.580Z,59.80
2023-05-03T14:36:39.147Z,59.90
2023-05-03T14:39:07.119Z,60.10
2023-05-03T14:41:35.143Z,60.30
2023-05-03T14:44:02.580Z,60.50
2023-05-03T14:46:30.692Z,60.70
2023-05-03T14:48:57.857Z,60.90
2023-05-03T14:51:25.008Z,61.00
2023-05-03T14:53:52.989Z,61.10
2023-05-03T14:56:20.097Z,61.20
2023-05-03T14:58:47.292Z,61.20
2023-05-03T15:01:18.972Z,61.40
2023-05-03T15:03:46.573Z,61.60
2023-05-03T15:06:14.610Z,61.70
2023-05-03T15:08:41.871Z,61.80
2023-05-03T15:11:09.186Z,61.90
2023-05-03T15:13:36.500Z,61.90
2023-05-03T15:16:03.666Z,62.10
2023-05-03T15:18:30.925Z,62.10
2023-05-03T15:20:58.016Z,62.30
2023-05-03T15:23:25.206Z,62.50
2023-05-03T15:25:54.128Z,62.50
2023-05-03T15:28:21.676Z,62.60
2023-05-03T15:30:48.728Z,62.80
2023-05-03T15:33:15.819Z,62.90
2023-05-03T15:35:44.565Z,62.90
2023-05-03T15:38:12.028Z,63.00
2023-05-03T15:40:39.456Z,63.00
2023-05-03T15:43:06.632Z,63.00
2023-05-03T15:45:33.757Z,63.10
2023-05-03T15:48:00.996Z,63.20
2023-05-03T15:50:29.222Z,63.20
2023-05-03T15:52:57.278Z,63.20
2023-05-03T15:55:24.547Z,63.20
2023-05-03T15:57:53.677Z,63.20
2023-05-03T16:00:23.192Z,63.20
2023-05-03T16:02:50.543Z,63.10
2023-05-03T16:05:18.069Z,63.10
2023-05-03T16:07:45.332Z,63.10
2023-05-03T16:10:12.446Z,63.10
2023-05-03T16:12:39.564Z,63.20
2023-05-03T16:15:08.900Z,63.30
2023-05-03T16:17:36.800Z,63.30
2023-05-03T16:20:11.374Z,63.40
2023-05-03T16:22:39.217Z,63.40
2023-05-03T16:25:11.462Z,63.30
2023-05-03T16:27:40.860Z,63.40
2023-05-03T16:30:08.942Z,63.40
2023-05-03T16:32:36.602Z,63.40
2023-05-03T16:35:06.946Z,63.40
2023-05-03T16:37:37.833Z,63.50
2023-05-03T16:40:11.906Z,63.40
2023-05-03T16:42:40.753Z,63.40
2023-05-03T16:45:11.285Z,63.40
2023-05-03T16:47:38.644Z,63.20
2023-05-03T16:50:08.225Z,63.10
2023-05-03T16:52:41.834Z,63.00
2023-05-03T16:55:09.820Z,63.10
2023-05-03T16:57:37.439Z,63.20
2023-05-03T17:00:11.601Z,63.40
2023-05-03T17:02:40.214Z,63.40
2023-05-03T17:05:08.545Z,63.40
2023-05-03T17:07:38.645Z,63.40
2023-05-03T17:10:07.103Z,63.50
2023-05-03T17:12:38.182Z,63.50
2023-05-03T17:15:07.050Z,63.50
2023-05-03T17:17:35.090Z,63.60
2023-05-03T17:20:02.743Z,63.70
2023-05-03T17:22:30.191Z,63.80
2023-05-03T17:25:00.428Z,64.00
2023-05-03T17:27:28.044Z,64.20
2023-05-03T17:29:57.649Z,64.30
2023-05-03T17:32:25.004Z,64.50
2023-05-03T17:34:52.198Z,64.70
2023-05-03T17:37:19.503Z,64.80
2023-05-03T17:39:47.315Z,64.90
2023-05-03T17:42:14.654Z,64.90
2023-05-03T17:44:42.363Z,64.90
2023-05-03T17:47:11.369Z,64.90
2023-05-03T17:49:38.484Z,65.00
2023-05-03T17:52:05.504Z,65.10
2023-05-03T17:54:32.534Z,65.10
2023-05-03T17:56:59.777Z,65.20
2023-05-03T17:59:26.855Z,65.30
2023-05-03T18:01:53.877Z,65.30
2023-05-03T18:04:20.854Z,65.30
2023-05-03T18:06:48.045Z,65.30
2023-05-03T18:09:15.264Z,65.30
2023-05-03T18:11:45.945Z,65.40
2023-05-03T18:14:13.020Z,65.40
2023-05-03T18:16:40.361Z,65.50
2023-05-03T18:19:07.739Z,65.50
2023-05-03T18:21:35.769Z,65.50
2023-05-03T18:24:03.608Z,65.70
2023-05-03T18:26:32.070Z,65.80
2023-05-03T18:28:59.271Z,66.00
2023-05-03T18:31:27.513Z,66.20
2023-05-03T18:33:56.228Z,66.50
2023-05-03T18:36:25.581Z,66.70
2023-05-03T18:38:54.197Z,66.90
2023-05-03T18:41:21.743Z,67.00
2023-05-03T18:43:51.012Z,67.20
2023-05-03T18:46:21.042Z,67.30
2023-05-03T18:48:48.418Z,67.60
2023-05-03T18:51:15.906Z,68.10
2023-05-03T18:53:43.947Z,68.40
2023-05-03T18:56:11.212Z,68.50
2023-05-03T18:58:38.606Z,68.50
2023-05-03T19:01:06.175Z,68.50
2023-05-03T19:03:36.612Z,68.40
2023-05-03T19:06:07.835Z,68.50
2023-05-03T19:08:37.966Z,68.60
2023-05-03T19:11:08.986Z,68.80
2023-05-03T19:13:36.391Z,68.90
2023-05-03T19:16:10.156Z,68.90
2023-05-03T19:18:37.962Z,69.00
2023-05-03T19:21:05.441Z,69.00
2023-05-03T19:23:33.666Z,69.10
2023-05-03T19:26:01.567Z,69.20
2023-05-03T19:28:28.860Z,69.10
2023-05-03T19:30:56.345Z,69.10
2023-05-03T19:33:23.481Z,69.30
2023-05-03T19:35:50.753Z,69.10
2023-05-03T19:38:17.760Z,69.00
2023-05-03T19:40:55.630Z,69.00
2023-05-03T19:43:22.706Z,69.00
2023-05-03T19:45:49.753Z,69.10
2023-05-03T19:48:17.298Z,69.30
2023-05-03T19:50:45.761Z,69.40
2023-05-03T19:53:13.024Z,69.70
2023-05-03T19:55:40.335Z,69.80
2023-05-03T19:58:07.714Z,69.70
2023-05-03T20:00:37.695Z,69.70
2023-05-03T20:03:05.511Z,69.90
2023-05-03T20:05:32.709Z,70.00
2023-05-03T20:08:01.436Z,70.00
2023-05-03T20:10:28.720Z,69.90
2023-05-03T20:12:55.832Z,69.90
2023-05-03T20:15:23.871Z,69.90
2023-05-03T20:17:53.360Z,70.30
2023-05-03T20:20:20.793Z,70.50
2023-05-03T20:22:49.325Z,70.40
2023-05-03T20:25:20.016Z,70.40
2023-05-03T20:27:47.221Z,70.30
2023-05-03T20:30:14.822Z,70.40
2023-05-03T20:32:42.038Z,70.40
2023-05-03T20:35:09.450Z,70.50
2023-05-03T20:37:38.653Z,70.60
2023-05-03T20:40:07.677Z,70.50
2023-05-03T20:42:46.747Z,70.40
2023-05-03T20:45:16.260Z,70.60
2023-05-03T20:47:43.332Z,70.90
2023-05-03T20:50:10.713Z,70.70
2023-05-03T20:52:41.048Z,70.80
2023-05-03T20:55:08.360Z,70.90
2023-05-03T20:57:42.116Z,70.90
2023-05-03T21:00:12.816Z,70.40
2023-05-03T21:02:41.158Z,70.60
2023-05-03T21:05:08.925Z,70.70
2023-05-03T21:07:36.165Z,70.40
2023-05-03T21:10:06.637Z,70.40
2023-05-03T21:12:35.027Z,70.50
2023-05-03T21:15:02.391Z,69.90
2023-05-03T21:17:29.607Z,69.90
2023-05-03T21:19:56.796Z,69.80
2023-05-03T21:22:24.081Z,69.90
2023-05-03T21:24:51.562Z,70.00
2023-05-03T21:27:22.993Z,70.10
2023-05-03T21:29:50.410Z,70.50
2023-05-03T21:32:17.720Z,70.50
2023-05-03T21:34:45.025Z,70.40
2023-05-03T21:37:12.467Z,70.50
2023-05-03T21:39:39.827Z,70.40
2023-05-03T21:42:08.328Z,70.50
2023-05-03T21:44:35.656Z,70.60
2023-05-03T21:47:04.188Z,70.90
2023-05-03T21:49:33.200Z,71.20
2023-05-03T21:52:00.803Z,71.10
2023-05-03T21:54:27.902Z,70.80
2023-05-03T21:56:55.353Z,70.50
2023-05-03T21:59:22.691Z,70.50
2023-05-03T22:01:50.576Z,70.50
2023-05-03T22:04:21.178Z,70.60
2023-05-03T22:06:49.375Z,70.70
2023-05-03T22:09:17.756Z,70.60
2023-05-03T22:11:45.261Z,70.70
2023-05-03T22:14:13.052Z,70.70
2023-05-03T22:16:42.354Z,70.70
2023-05-03T22:19:09.839Z,70.70
2023-05-03T22:21:40.240Z,70.60
2023-05-03T22:24:08.991Z,70.40
2023-05-03T22:26:36.821Z,70.40
2023-05-03T22:29:04.235Z,70.30
2023-05-03T22:31:31.488Z,70.40
2023-05-03T22:33:58.496Z,70.40
2023-05-03T22:36:25.512Z,70.40
2023-05-03T22:38:55.623Z,70.90
2023-05-03T22:41:22.864Z,70.70
2023-05-03T22:43:50.157Z,70.50
2023-05-03T22:46:19.475Z,70.50
2023-05-03T22:48:50.141Z,70.40
2023-05-03T22:51:17.607Z,70.20
2023-05-03T22:53:44.547Z,70.20
2023-05-03T22:56:11.703Z,70.20
2023-05-03T22:58:38.958Z,70.20
2023-05-03T23:01:10.662Z,70.20
2023-05-03T23:03:39.585Z,70.30
2023-05-03T23:06:07.358Z,70.20
2023-05-03T23:08:34.505Z,70.50
2023-05-03T23:11:01.986Z,70.20
2023-05-03T23:13:29.021Z,70.20
2023-05-03T23:15:56.240Z,70.10
2023-05-03T23:18:23.368Z,70.50
2023-05-03T23:20:50.695Z,70.60
2023-05-03T23:23:18.120Z,70.20
2023-05-03T23:25:45.802Z,69.90
2023-05-03T23:28:13.496Z,70.30
2023-05-03T23:30:44.989Z,70.30
2023-05-03T23:33:13.435Z,69.80
2023-05-03T23:35:41.895Z,69.70
2023-05-03T23:38:09.740Z,69.70
2023-05-03T23:40:36.988Z,69.90
2023-05-03T23:43:06.206Z,70.10
2023-05-03T23:45:33.369Z,70.30
2023-05-03T23:48:00.594Z,70.10
2023-05-03T23:50:28.565Z,70.00
2023-05-03T23:52:56.034Z,69.90
2023-05-03T23:55:23.304Z,69.90
2023-05-03T23:57:50.468Z,69.80
